sensor_id;sensor_type;location;lat;lon;timestamp;pressure;altitude;pressure_sealevel;temperature;humidity
41515;BME280;27247;48.020;16.720;2023-07-31T00:00:45;99740.50;;;19.16;94.28
41515;BME280;27247;48.020;16.720;2023-07-31T00:04:56;99741.44;;;19.10;95.64
41515;BME280;27247;48.020;16.720;2023-07-31T00:09:07;99748.03;;;19.02;96.71
41515;BME280;27247;48.020;16.720;2023-07-31T00:13:17;99747.06;;;18.97;97.03
41515;BME280;27247;48.020;16.720;2023-07-31T00:17:27;99750.59;;;18.86;97.38
41515;BME280;27247;48.020;16.720;2023-07-31T00:21:37;99758.69;;;18.74;97.23
41515;BME280;27247;48.020;16.720;2023-07-31T00:25:48;99764.75;;;18.51;98.91
41515;BME280;27247;48.020;16.720;2023-07-31T00:29:58;99751.69;;;18.48;98.04
41515;BME280;27247;48.020;16.720;2023-07-31T00:34:08;99754.72;;;18.40;97.59
41515;BME280;27247;48.020;16.720;2023-07-31T00:38:19;99769.84;;;18.29;97.26
41515;BME280;27247;48.020;16.720;2023-07-31T00:42:29;99764.06;;;18.26;97.82
41515;BME280;27247;48.020;16.720;2023-07-31T00:46:41;99772.19;;;18.26;97.99
41515;BME280;27247;48.020;16.720;2023-07-31T00:50:52;99772.78;;;18.28;97.75
41515;BME280;27247;48.020;16.720;2023-07-31T00:55:02;99777.53;;;18.14;97.86
41515;BME280;27247;48.020;16.720;2023-07-31T00:59:13;99771.19;;;18.20;97.53
41515;BME280;27247;48.020;16.720;2023-07-31T01:03:23;99768.59;;;18.13;97.61
41515;BME280;27247;48.020;16.720;2023-07-31T01:07:57;99772.56;;;18.11;96.87
41515;BME280;27247;48.020;16.720;2023-07-31T01:12:14;99769.63;;;18.12;96.72
41515;BME280;27247;48.020;16.720;2023-07-31T01:16:27;99772.63;;;18.23;95.17
41515;BME280;27247;48.020;16.720;2023-07-31T01:20:41;99774.13;;;18.18;94.70
41515;BME280;27247;48.020;16.720;2023-07-31T01:29:27;99759.13;;;17.86;96.38
41515;BME280;27247;48.020;16.720;2023-07-31T01:33:41;99767.69;;;17.83;96.99
41515;BME280;27247;48.020;16.720;2023-07-31T01:37:54;99774.66;;;17.72;97.02
41515;BME280;27247;48.020;16.720;2023-07-31T01:42:05;99767.31;;;17.79;97.17
41515;BME280;27247;48.020;16.720;2023-07-31T01:46:15;99747.03;;;17.70;96.90
41515;BME280;27247;48.020;16.720;2023-07-31T01:50:25;99743.88;;;17.73;96.94
41515;BME280;27247;48.020;16.720;2023-07-31T01:54:36;99746.28;;;17.81;95.63
41515;BME280;27247;48.020;16.720;2023-07-31T01:58:47;99748.53;;;17.84;94.80
41515;BME280;27247;48.020;16.720;2023-07-31T02:02:59;99753.41;;;17.94;93.55
41515;BME280;27247;48.020;16.720;2023-07-31T02:07:09;99760.69;;;17.94;93.15
41515;BME280;27247;48.020;16.720;2023-07-31T02:11:20;99767.16;;;17.74;94.49
41515;BME280;27247;48.020;16.720;2023-07-31T02:15:31;99769.91;;;17.18;98.41
41515;BME280;27247;48.020;16.720;2023-07-31T02:19:41;99777.53;;;16.96;100.00
41515;BME280;27247;48.020;16.720;2023-07-31T02:23:51;99778.47;;;16.83;100.00
41515;BME280;27247;48.020;16.720;2023-07-31T02:28:02;99783.88;;;17.08;100.00
41515;BME280;27247;48.020;16.720;2023-07-31T02:32:12;99774.59;;;17.29;100.00
41515;BME280;27247;48.020;16.720;2023-07-31T02:36:22;99784.88;;;17.39;99.81
41515;BME280;27247;48.020;16.720;2023-07-31T02:40:33;99783.19;;;17.44;97.88
41515;BME280;27247;48.020;16.720;2023-07-31T02:44:43;99777.28;;;17.54;96.18
41515;BME280;27247;48.020;16.720;2023-07-31T02:48:53;99767.88;;;17.56;95.21
41515;BME280;27247;48.020;16.720;2023-07-31T02:53:04;99775.78;;;17.58;94.15
41515;BME280;27247;48.020;16.720;2023-07-31T02:57:14;99789.13;;;17.53;93.94
41515;BME280;27247;48.020;16.720;2023-07-31T03:01:26;99790.41;;;17.50;94.04
41515;BME280;27247;48.020;16.720;2023-07-31T03:05:36;99789.34;;;17.51;93.46
41515;BME280;27247;48.020;16.720;2023-07-31T03:09:46;99791.38;;;17.56;92.19
41515;BME280;27247;48.020;16.720;2023-07-31T03:13:56;99792.16;;;17.63;91.63
41515;BME280;27247;48.020;16.720;2023-07-31T03:18:07;99789.22;;;17.71;90.68
41515;BME280;27247;48.020;16.720;2023-07-31T03:22:17;99794.03;;;17.69;90.80
41515;BME280;27247;48.020;16.720;2023-07-31T03:26:27;99790.56;;;17.55;91.31
41515;BME280;27247;48.020;16.720;2023-07-31T03:30:39;99798.16;;;17.65;91.44
41515;BME280;27247;48.020;16.720;2023-07-31T03:34:50;99804.88;;;17.56;92.21
41515;BME280;27247;48.020;16.720;2023-07-31T03:39:00;99796.91;;;17.43;93.17
41515;BME280;27247;48.020;16.720;2023-07-31T03:43:11;99797.06;;;17.48;93.14
41515;BME280;27247;48.020;16.720;2023-07-31T03:47:21;99809.75;;;17.47;93.27
41515;BME280;27247;48.020;16.720;2023-07-31T03:51:32;99810.84;;;17.40;93.59
41515;BME280;27247;48.020;16.720;2023-07-31T03:55:42;99810.31;;;17.31;93.64
41515;BME280;27247;48.020;16.720;2023-07-31T03:59:53;99799.22;;;17.39;92.95
41515;BME280;27247;48.020;16.720;2023-07-31T04:04:03;99793.53;;;17.47;91.95
41515;BME280;27247;48.020;16.720;2023-07-31T04:08:14;99798.63;;;17.37;91.89
41515;BME280;27247;48.020;16.720;2023-07-31T04:12:24;99815.19;;;17.16;93.79
41515;BME280;27247;48.020;16.720;2023-07-31T04:16:34;99808.16;;;17.40;93.48
41515;BME280;27247;48.020;16.720;2023-07-31T04:20:44;99805.84;;;17.43;94.09
41515;BME280;27247;48.020;16.720;2023-07-31T04:24:55;99807.44;;;17.26;95.53
41515;BME280;27247;48.020;16.720;2023-07-31T04:29:05;99810.78;;;17.21;96.56
41515;BME280;27247;48.020;16.720;2023-07-31T04:33:15;99815.19;;;17.16;97.65
41515;BME280;27247;48.020;16.720;2023-07-31T04:37:26;99813.50;;;17.21;98.31
41515;BME280;27247;48.020;16.720;2023-07-31T04:41:36;99808.31;;;17.20;99.18
41515;BME280;27247;48.020;16.720;2023-07-31T04:45:46;99808.00;;;17.35;99.38
41515;BME280;27247;48.020;16.720;2023-07-31T04:49:58;99817.69;;;17.42;100.00
41515;BME280;27247;48.020;16.720;2023-07-31T04:54:08;99816.75;;;17.55;100.00
41515;BME280;27247;48.020;16.720;2023-07-31T04:58:18;99830.59;;;17.65;100.00
41515;BME280;27247;48.020;16.720;2023-07-31T05:02:29;99828.28;;;17.75;100.00
41515;BME280;27247;48.020;16.720;2023-07-31T05:06:39;99831.50;;;17.84;100.00
41515;BME280;27247;48.020;16.720;2023-07-31T05:10:49;99827.63;;;17.98;100.00
41515;BME280;27247;48.020;16.720;2023-07-31T05:15:00;99829.34;;;18.11;100.00
41515;BME280;27247;48.020;16.720;2023-07-31T05:19:10;99832.28;;;18.28;100.00
41515;BME280;27247;48.020;16.720;2023-07-31T05:23:21;99837.69;;;18.46;100.00
41515;BME280;27247;48.020;16.720;2023-07-31T05:27:32;99844.06;;;18.51;99.48
41515;BME280;27247;48.020;16.720;2023-07-31T05:31:42;99831.38;;;18.52;99.15
41515;BME280;27247;48.020;16.720;2023-07-31T05:35:52;99843.13;;;18.64;99.34
41515;BME280;27247;48.020;16.720;2023-07-31T05:40:03;99847.69;;;18.82;99.72
41515;BME280;27247;48.020;16.720;2023-07-31T05:44:14;99848.84;;;19.04;96.23
41515;BME280;27247;48.020;16.720;2023-07-31T05:48:24;99837.97;;;19.34;92.69
41515;BME280;27247;48.020;16.720;2023-07-31T05:52:34;99851.06;;;19.49;90.46
41515;BME280;27247;48.020;16.720;2023-07-31T05:56:45;99845.13;;;19.70;87.51
41515;BME280;27247;48.020;16.720;2023-07-31T06:00:55;99842.19;;;19.84;87.02
41515;BME280;27247;48.020;16.720;2023-07-31T06:05:06;99848.22;;;19.97;86.07
41515;BME280;27247;48.020;16.720;2023-07-31T06:09:17;99845.75;;;19.96;86.92
41515;BME280;27247;48.020;16.720;2023-07-31T06:13:27;99835.34;;;20.04;83.00
41515;BME280;27247;48.020;16.720;2023-07-31T06:17:38;99836.16;;;20.28;80.72
41515;BME280;27247;48.020;16.720;2023-07-31T06:21:48;99838.16;;;20.45;79.24
41515;BME280;27247;48.020;16.720;2023-07-31T06:25:58;99833.22;;;20.70;78.92
41515;BME280;27247;48.020;16.720;2023-07-31T06:30:09;99832.81;;;20.90;74.30
41515;BME280;27247;48.020;16.720;2023-07-31T06:34:19;99830.38;;;21.05;73.10
41515;BME280;27247;48.020;16.720;2023-07-31T06:38:30;99833.50;;;21.25;74.12
41515;BME280;27247;48.020;16.720;2023-07-31T06:42:40;99830.88;;;21.47;70.96
41515;BME280;27247;48.020;16.720;2023-07-31T06:46:50;99829.78;;;21.65;70.17
41515;BME280;27247;48.020;16.720;2023-07-31T06:51:01;99825.53;;;21.86;68.61
41515;BME280;27247;48.020;16.720;2023-07-31T06:55:19;99826.22;;;21.98;67.97
41515;BME280;27247;48.020;16.720;2023-07-31T06:59:30;99828.44;;;22.18;67.71
41515;BME280;27247;48.020;16.720;2023-07-31T07:03:40;99832.75;;;22.36;67.55
41515;BME280;27247;48.020;16.720;2023-07-31T07:07:51;99820.72;;;22.53;67.56
41515;BME280;27247;48.020;16.720;2023-07-31T07:12:02;99818.19;;;22.69;66.68
41515;BME280;27247;48.020;16.720;2023-07-31T07:16:13;99815.22;;;22.92;65.27
41515;BME280;27247;48.020;16.720;2023-07-31T07:20:23;99809.63;;;23.04;62.99
41515;BME280;27247;48.020;16.720;2023-07-31T07:24:34;99813.09;;;23.26;61.65
41515;BME280;27247;48.020;16.720;2023-07-31T07:28:44;99796.78;;;23.31;59.66
41515;BME280;27247;48.020;16.720;2023-07-31T07:32:55;99799.34;;;23.48;59.51
41515;BME280;27247;48.020;16.720;2023-07-31T07:37:05;99802.94;;;23.53;59.67
41515;BME280;27247;48.020;16.720;2023-07-31T07:41:16;99795.13;;;23.30;57.57
41515;BME280;27247;48.020;16.720;2023-07-31T07:45:26;99791.75;;;23.18;57.44
41515;BME280;27247;48.020;16.720;2023-07-31T07:49:36;99795.00;;;23.47;58.45
41515;BME280;27247;48.020;16.720;2023-07-31T07:53:47;99784.59;;;23.81;58.88
41515;BME280;27247;48.020;16.720;2023-07-31T07:57:57;99783.59;;;23.92;57.89
41515;BME280;27247;48.020;16.720;2023-07-31T08:02:07;99791.28;;;23.95;56.35
41515;BME280;27247;48.020;16.720;2023-07-31T08:06:18;99788.38;;;24.17;57.08
41515;BME280;27247;48.020;16.720;2023-07-31T08:10:28;99787.94;;;24.30;56.48
41515;BME280;27247;48.020;16.720;2023-07-31T08:14:39;99788.81;;;24.51;55.80
41515;BME280;27247;48.020;16.720;2023-07-31T08:18:49;99781.50;;;24.72;56.88
41515;BME280;27247;48.020;16.720;2023-07-31T08:22:59;99784.22;;;24.72;53.57
41515;BME280;27247;48.020;16.720;2023-07-31T08:27:10;99787.81;;;24.77;54.50
41515;BME280;27247;48.020;16.720;2023-07-31T08:31:21;99784.28;;;24.92;54.83
41515;BME280;27247;48.020;16.720;2023-07-31T08:35:31;99787.34;;;25.01;53.41
41515;BME280;27247;48.020;16.720;2023-07-31T08:39:42;99784.06;;;25.04;52.56
41515;BME280;27247;48.020;16.720;2023-07-31T08:43:53;99788.47;;;25.30;51.23
41515;BME280;27247;48.020;16.720;2023-07-31T08:48:05;99781.63;;;25.33;50.59
41515;BME280;27247;48.020;16.720;2023-07-31T08:52:15;99777.78;;;25.39;50.05
41515;BME280;27247;48.020;16.720;2023-07-31T08:56:27;99772.88;;;25.36;50.32
41515;BME280;27247;48.020;16.720;2023-07-31T09:00:39;99781.88;;;25.62;50.65
41515;BME280;27247;48.020;16.720;2023-07-31T09:04:50;99772.56;;;25.73;49.96
41515;BME280;27247;48.020;16.720;2023-07-31T09:09:01;99770.88;;;25.92;50.33
41515;BME280;27247;48.020;16.720;2023-07-31T09:13:12;99769.50;;;26.10;50.48
41515;BME280;27247;48.020;16.720;2023-07-31T09:17:33;99775.41;;;26.43;48.76
41515;BME280;27247;48.020;16.720;2023-07-31T09:21:47;99770.09;;;26.61;49.03
41515;BME280;27247;48.020;16.720;2023-07-31T09:25:58;99771.13;;;26.76;48.19
41515;BME280;27247;48.020;16.720;2023-07-31T09:30:10;99769.56;;;26.59;48.49
41515;BME280;27247;48.020;16.720;2023-07-31T09:34:28;99763.13;;;26.35;49.59
41515;BME280;27247;48.020;16.720;2023-07-31T09:38:39;99767.34;;;25.82;49.76
41515;BME280;27247;48.020;16.720;2023-07-31T09:42:49;99770.38;;;25.60;51.66
41515;BME280;27247;48.020;16.720;2023-07-31T09:47:00;99759.72;;;25.58;51.91
41515;BME280;27247;48.020;16.720;2023-07-31T09:51:10;99749.84;;;25.72;50.75
41515;BME280;27247;48.020;16.720;2023-07-31T09:55:20;99745.66;;;26.11;51.72
41515;BME280;27247;48.020;16.720;2023-07-31T09:59:31;99759.28;;;26.36;51.01
41515;BME280;27247;48.020;16.720;2023-07-31T10:03:42;99749.09;;;26.42;51.45
41515;BME280;27247;48.020;16.720;2023-07-31T10:07:55;99754.66;;;26.21;50.23
41515;BME280;27247;48.020;16.720;2023-07-31T10:12:08;99756.56;;;26.26;51.49
41515;BME280;27247;48.020;16.720;2023-07-31T10:16:21;99751.53;;;26.48;50.99
41515;BME280;27247;48.020;16.720;2023-07-31T10:20:32;99738.63;;;26.93;49.29
41515;BME280;27247;48.020;16.720;2023-07-31T10:24:45;99729.16;;;27.19;49.81
41515;BME280;27247;48.020;16.720;2023-07-31T10:28:55;99724.19;;;27.21;49.80
41515;BME280;27247;48.020;16.720;2023-07-31T10:33:07;99713.06;;;27.08;49.36
41515;BME280;27247;48.020;16.720;2023-07-31T10:37:29;99719.84;;;26.76;48.59
41515;BME280;27247;48.020;16.720;2023-07-31T10:41:40;99705.56;;;26.30;49.80
41515;BME280;27247;48.020;16.720;2023-07-31T10:45:50;99697.97;;;26.17;51.88
41515;BME280;27247;48.020;16.720;2023-07-31T10:50:20;99706.09;;;26.37;50.60
41515;BME280;27247;48.020;16.720;2023-07-31T10:54:33;99693.63;;;26.99;50.75
41515;BME280;27247;48.020;16.720;2023-07-31T10:58:44;99681.38;;;27.49;49.17
41515;BME280;27247;48.020;16.720;2023-07-31T11:03:06;99676.66;;;28.03;48.18
41515;BME280;27247;48.020;16.720;2023-07-31T11:07:18;99667.38;;;28.60;47.53
41515;BME280;27247;48.020;16.720;2023-07-31T11:11:29;99663.25;;;28.76;47.67
41515;BME280;27247;48.020;16.720;2023-07-31T11:15:39;99649.97;;;28.65;47.52
41515;BME280;27247;48.020;16.720;2023-07-31T11:19:50;99649.72;;;28.80;45.94
41515;BME280;27247;48.020;16.720;2023-07-31T11:24:00;99636.38;;;29.52;46.00
41515;BME280;27247;48.020;16.720;2023-07-31T11:28:15;99638.00;;;30.08;44.42
41515;BME280;27247;48.020;16.720;2023-07-31T11:32:26;99614.75;;;30.36;44.27
41515;BME280;27247;48.020;16.720;2023-07-31T11:36:36;99626.16;;;30.43;42.25
41515;BME280;27247;48.020;16.720;2023-07-31T11:40:47;99625.53;;;30.10;42.41
41515;BME280;27247;48.020;16.720;2023-07-31T11:44:57;99611.91;;;29.64;42.96
41515;BME280;27247;48.020;16.720;2023-07-31T11:49:08;99609.75;;;29.75;44.43
41515;BME280;27247;48.020;16.720;2023-07-31T11:53:23;99602.72;;;29.55;44.09
41515;BME280;27247;48.020;16.720;2023-07-31T11:57:34;99605.63;;;29.86;44.29
41515;BME280;27247;48.020;16.720;2023-07-31T12:01:45;99596.34;;;30.09;42.47
41515;BME280;27247;48.020;16.720;2023-07-31T12:05:55;99589.56;;;29.66;43.44
41515;BME280;27247;48.020;16.720;2023-07-31T12:10:06;99583.81;;;29.35;42.75
41515;BME280;27247;48.020;16.720;2023-07-31T12:14:27;99584.91;;;29.06;44.97
41515;BME280;27247;48.020;16.720;2023-07-31T12:18:40;99572.56;;;28.39;44.50
41515;BME280;27247;48.020;16.720;2023-07-31T12:22:51;99557.97;;;28.24;45.84
41515;BME280;27247;48.020;16.720;2023-07-31T12:27:09;99547.94;;;28.80;44.76
41515;BME280;27247;48.020;16.720;2023-07-31T12:31:21;99540.59;;;28.75;45.23
41515;BME280;27247;48.020;16.720;2023-07-31T12:35:36;99532.91;;;28.58;45.44
41515;BME280;27247;48.020;16.720;2023-07-31T12:39:47;99527.59;;;28.48;46.10
41515;BME280;27247;48.020;16.720;2023-07-31T12:43:58;99524.00;;;28.34;47.50
41515;BME280;27247;48.020;16.720;2023-07-31T12:48:08;99494.22;;;28.69;46.58
41515;BME280;27247;48.020;16.720;2023-07-31T12:52:19;99503.72;;;28.76;45.75
41515;BME280;27247;48.020;16.720;2023-07-31T12:56:29;99494.72;;;29.17;46.86
41515;BME280;27247;48.020;16.720;2023-07-31T13:00:40;99484.47;;;29.95;43.77
41515;BME280;27247;48.020;16.720;2023-07-31T13:04:50;99478.66;;;29.96;41.15
41515;BME280;27247;48.020;16.720;2023-07-31T13:09:01;99465.84;;;30.36;41.66
41515;BME280;27247;48.020;16.720;2023-07-31T13:13:11;99462.28;;;30.67;42.15
41515;BME280;27247;48.020;16.720;2023-07-31T13:17:22;99459.13;;;30.91;41.78
41515;BME280;27247;48.020;16.720;2023-07-31T13:21:32;99456.50;;;30.01;40.76
41515;BME280;27247;48.020;16.720;2023-07-31T13:25:46;99452.31;;;29.68;41.53
41515;BME280;27247;48.020;16.720;2023-07-31T13:29:56;99454.97;;;29.95;42.52
41515;BME280;27247;48.020;16.720;2023-07-31T13:34:07;99444.13;;;30.43;41.23
41515;BME280;27247;48.020;16.720;2023-07-31T13:38:17;99440.47;;;30.88;41.74
41515;BME280;27247;48.020;16.720;2023-07-31T13:42:27;99431.00;;;31.20;41.43
41515;BME280;27247;48.020;16.720;2023-07-31T13:46:38;99433.50;;;30.90;41.14
41515;BME280;27247;48.020;16.720;2023-07-31T13:50:49;99436.78;;;30.30;41.98
41515;BME280;27247;48.020;16.720;2023-07-31T13:54:59;99427.00;;;30.24;41.95
41515;BME280;27247;48.020;16.720;2023-07-31T13:59:10;99408.44;;;30.38;41.50
41515;BME280;27247;48.020;16.720;2023-07-31T14:03:21;99409.94;;;30.53;42.48
41515;BME280;27247;48.020;16.720;2023-07-31T14:07:32;99406.78;;;31.17;42.05
41515;BME280;27247;48.020;16.720;2023-07-31T14:11:42;99405.38;;;31.45;40.88
41515;BME280;27247;48.020;16.720;2023-07-31T14:15:53;99403.63;;;30.92;40.94
41515;BME280;27247;48.020;16.720;2023-07-31T14:20:03;99397.91;;;30.40;41.78
41515;BME280;27247;48.020;16.720;2023-07-31T14:24:14;99395.13;;;30.71;44.01
41515;BME280;27247;48.020;16.720;2023-07-31T14:28:24;99392.78;;;31.13;42.14
41515;BME280;27247;48.020;16.720;2023-07-31T14:32:34;99385.63;;;31.03;40.90
41515;BME280;27247;48.020;16.720;2023-07-31T14:36:47;99390.31;;;30.94;41.74
41515;BME280;27247;48.020;16.720;2023-07-31T14:40:57;99383.16;;;30.85;41.55
41515;BME280;27247;48.020;16.720;2023-07-31T14:45:08;99383.19;;;31.02;41.12
41515;BME280;27247;48.020;16.720;2023-07-31T14:49:20;99380.25;;;30.50;42.02
41515;BME280;27247;48.020;16.720;2023-07-31T14:53:30;99370.47;;;30.13;42.13
41515;BME280;27247;48.020;16.720;2023-07-31T14:57:40;99377.06;;;29.59;41.87
41515;BME280;27247;48.020;16.720;2023-07-31T15:01:51;99376.75;;;29.24;42.54
41515;BME280;27247;48.020;16.720;2023-07-31T15:06:01;99377.19;;;28.90;43.50
41515;BME280;27247;48.020;16.720;2023-07-31T15:10:12;99393.06;;;28.79;45.28
41515;BME280;27247;48.020;16.720;2023-07-31T15:14:23;99397.53;;;28.34;48.69
41515;BME280;27247;48.020;16.720;2023-07-31T15:18:33;99399.19;;;28.35;48.36
41515;BME280;27247;48.020;16.720;2023-07-31T15:22:43;99383.63;;;28.12;48.66
41515;BME280;27247;48.020;16.720;2023-07-31T15:26:54;99379.59;;;27.90;48.34
41515;BME280;27247;48.020;16.720;2023-07-31T15:31:05;99369.69;;;27.76;48.54
41515;BME280;27247;48.020;16.720;2023-07-31T15:35:15;99372.75;;;27.37;47.97
41515;BME280;27247;48.020;16.720;2023-07-31T15:39:26;99364.88;;;27.11;48.55
41515;BME280;27247;48.020;16.720;2023-07-31T15:43:36;99361.47;;;27.19;48.74
41515;BME280;27247;48.020;16.720;2023-07-31T15:47:47;99367.41;;;27.08;48.16
41515;BME280;27247;48.020;16.720;2023-07-31T15:51:58;99357.91;;;27.19;48.96
41515;BME280;27247;48.020;16.720;2023-07-31T15:56:09;99361.19;;;26.97;49.08
41515;BME280;27247;48.020;16.720;2023-07-31T16:00:19;99357.75;;;26.86;48.77
41515;BME280;27247;48.020;16.720;2023-07-31T16:04:29;99363.19;;;26.91;48.52
41515;BME280;27247;48.020;16.720;2023-07-31T16:08:40;99351.63;;;26.94;48.67
41515;BME280;27247;48.020;16.720;2023-07-31T16:12:51;99346.94;;;26.76;48.80
41515;BME280;27247;48.020;16.720;2023-07-31T16:17:01;99351.03;;;26.55;48.17
41515;BME280;27247;48.020;16.720;2023-07-31T16:21:12;99339.59;;;26.48;49.38
41515;BME280;27247;48.020;16.720;2023-07-31T16:25:22;99344.16;;;26.57;49.57
41515;BME280;27247;48.020;16.720;2023-07-31T16:29:32;99344.91;;;26.63;49.02
41515;BME280;27247;48.020;16.720;2023-07-31T16:33:43;99340.94;;;26.50;50.22
41515;BME280;27247;48.020;16.720;2023-07-31T16:37:53;99336.41;;;26.40;49.97
41515;BME280;27247;48.020;16.720;2023-07-31T16:42:04;99337.13;;;26.22;50.04
41515;BME280;27247;48.020;16.720;2023-07-31T16:46:14;99334.50;;;26.12;50.99
41515;BME280;27247;48.020;16.720;2023-07-31T16:50:25;99330.75;;;26.03;51.50
41515;BME280;27247;48.020;16.720;2023-07-31T16:54:35;99321.66;;;26.07;52.09
41515;BME280;27247;48.020;16.720;2023-07-31T16:58:45;99319.81;;;25.98;52.68
41515;BME280;27247;48.020;16.720;2023-07-31T17:02:56;99320.41;;;25.95;53.30
41515;BME280;27247;48.020;16.720;2023-07-31T17:07:06;99312.56;;;25.83;54.34
41515;BME280;27247;48.020;16.720;2023-07-31T17:11:16;99315.56;;;25.87;55.02
41515;BME280;27247;48.020;16.720;2023-07-31T17:15:27;99320.22;;;25.86;56.17
41515;BME280;27247;48.020;16.720;2023-07-31T17:19:37;99315.41;;;25.73;56.92
41515;BME280;27247;48.020;16.720;2023-07-31T17:23:48;99318.59;;;25.51;58.16
41515;BME280;27247;48.020;16.720;2023-07-31T17:27:58;99306.09;;;25.40;59.63
41515;BME280;27247;48.020;16.720;2023-07-31T17:32:09;99307.09;;;25.15;61.04
41515;BME280;27247;48.020;16.720;2023-07-31T17:36:19;99303.66;;;24.99;61.30
41515;BME280;27247;48.020;16.720;2023-07-31T17:40:30;99310.75;;;25.00;61.56
41515;BME280;27247;48.020;16.720;2023-07-31T17:44:41;99308.88;;;24.86;62.75
41515;BME280;27247;48.020;16.720;2023-07-31T17:48:52;99313.50;;;24.90;63.21
41515;BME280;27247;48.020;16.720;2023-07-31T17:53:03;99310.53;;;24.81;63.72
41515;BME280;27247;48.020;16.720;2023-07-31T17:57:13;99307.84;;;24.71;64.63
41515;BME280;27247;48.020;16.720;2023-07-31T18:01:24;99317.22;;;24.55;65.81
41515;BME280;27247;48.020;16.720;2023-07-31T18:05:38;99326.34;;;24.30;67.12
41515;BME280;27247;48.020;16.720;2023-07-31T18:09:50;99304.75;;;24.24;68.05
41515;BME280;27247;48.020;16.720;2023-07-31T18:14:00;99320.88;;;24.20;68.41
41515;BME280;27247;48.020;16.720;2023-07-31T18:18:12;99315.19;;;24.06;69.28
41515;BME280;27247;48.020;16.720;2023-07-31T18:22:23;99313.00;;;23.98;69.81
41515;BME280;27247;48.020;16.720;2023-07-31T18:26:34;99305.91;;;23.87;70.43
41515;BME280;27247;48.020;16.720;2023-07-31T18:30:46;99305.66;;;23.73;70.87
41515;BME280;27247;48.020;16.720;2023-07-31T18:34:57;99306.75;;;23.67;71.59
41515;BME280;27247;48.020;16.720;2023-07-31T18:39:08;99314.63;;;23.53;72.26
41515;BME280;27247;48.020;16.720;2023-07-31T18:43:19;99308.91;;;23.35;72.82
41515;BME280;27247;48.020;16.720;2023-07-31T18:47:29;99309.16;;;23.18;73.46
41515;BME280;27247;48.020;16.720;2023-07-31T18:51:41;99317.06;;;23.14;73.87
41515;BME280;27247;48.020;16.720;2023-07-31T18:55:52;99313.00;;;23.17;73.86
41515;BME280;27247;48.020;16.720;2023-07-31T19:00:03;99300.69;;;23.04;74.53
41515;BME280;27247;48.020;16.720;2023-07-31T19:04:15;99305.34;;;23.09;74.63
41515;BME280;27247;48.020;16.720;2023-07-31T19:08:25;99302.91;;;23.12;74.48
41515;BME280;27247;48.020;16.720;2023-07-31T19:12:36;99307.81;;;23.15;74.30
41515;BME280;27247;48.020;16.720;2023-07-31T19:16:46;99309.72;;;23.10;75.64
41515;BME280;27247;48.020;16.720;2023-07-31T19:20:57;99311.06;;;22.97;76.15
41515;BME280;27247;48.020;16.720;2023-07-31T19:25:08;99305.75;;;22.70;77.11
41515;BME280;27247;48.020;16.720;2023-07-31T19:29:19;99295.38;;;22.67;77.24
41515;BME280;27247;48.020;16.720;2023-07-31T19:33:30;99301.31;;;22.54;78.66
41515;BME280;27247;48.020;16.720;2023-07-31T19:37:40;99299.97;;;22.51;78.91
41515;BME280;27247;48.020;16.720;2023-07-31T19:41:51;99292.59;;;22.52;79.74
41515;BME280;27247;48.020;16.720;2023-07-31T19:46:01;99289.88;;;22.47;79.56
41515;BME280;27247;48.020;16.720;2023-07-31T19:50:12;99287.09;;;22.32;80.59
41515;BME280;27247;48.020;16.720;2023-07-31T19:54:22;99292.25;;;22.28;81.54
41515;BME280;27247;48.020;16.720;2023-07-31T19:58:33;99275.63;;;22.24;81.36
41515;BME280;27247;48.020;16.720;2023-07-31T20:02:44;99283.53;;;22.26;81.05
41515;BME280;27247;48.020;16.720;2023-07-31T20:06:54;99281.53;;;22.06;82.20
41515;BME280;27247;48.020;16.720;2023-07-31T20:11:05;99294.38;;;21.84;83.37
41515;BME280;27247;48.020;16.720;2023-07-31T20:15:21;99275.47;;;21.62;84.70
41515;BME280;27247;48.020;16.720;2023-07-31T20:19:31;99273.72;;;21.46;86.25
41515;BME280;27247;48.020;16.720;2023-07-31T20:23:42;99275.47;;;21.25;87.71
41515;BME280;27247;48.020;16.720;2023-07-31T20:27:57;99275.72;;;21.23;88.27
41515;BME280;27247;48.020;16.720;2023-07-31T20:32:08;99284.97;;;21.22;89.58
41515;BME280;27247;48.020;16.720;2023-07-31T20:36:19;99273.22;;;21.22;89.50
41515;BME280;27247;48.020;16.720;2023-07-31T20:40:30;99281.28;;;21.39;88.99
41515;BME280;27247;48.020;16.720;2023-07-31T20:44:41;99275.38;;;21.47;88.83
41515;BME280;27247;48.020;16.720;2023-07-31T20:48:52;99270.31;;;21.60;88.10
41515;BME280;27247;48.020;16.720;2023-07-31T20:53:03;99279.28;;;21.61;88.26
41515;BME280;27247;48.020;16.720;2023-07-31T20:57:14;99269.25;;;21.66;88.46
41515;BME280;27247;48.020;16.720;2023-07-31T21:01:24;99274.66;;;21.61;88.86
41515;BME280;27247;48.020;16.720;2023-07-31T21:05:35;99262.09;;;21.55;90.64
41515;BME280;27247;48.020;16.720;2023-07-31T21:09:46;99264.72;;;21.40;91.83
41515;BME280;27247;48.020;16.720;2023-07-31T21:13:58;99265.72;;;21.29;92.86
41515;BME280;27247;48.020;16.720;2023-07-31T21:18:08;99256.09;;;21.21;95.33
41515;BME280;27247;48.020;16.720;2023-07-31T21:22:18;99253.47;;;21.26;95.03
41515;BME280;27247;48.020;16.720;2023-07-31T21:26:29;99251.09;;;21.35;95.15
41515;BME280;27247;48.020;16.720;2023-07-31T21:30:39;99237.03;;;21.16;97.25
41515;BME280;27247;48.020;16.720;2023-07-31T21:34:49;99242.28;;;21.23;97.72
41515;BME280;27247;48.020;16.720;2023-07-31T21:39:00;99241.03;;;21.35;96.60
41515;BME280;27247;48.020;16.720;2023-07-31T21:43:10;99240.72;;;21.32;96.90
41515;BME280;27247;48.020;16.720;2023-07-31T21:47:20;99242.16;;;21.40;96.84
41515;BME280;27247;48.020;16.720;2023-07-31T21:51:31;99245.41;;;21.10;98.95
41515;BME280;27247;48.020;16.720;2023-07-31T21:55:41;99224.19;;;20.80;100.00